Brownsville South Padre Island International Airport
KBRO : now visible

Airfield :











YOU CAN JOIN US ON...

 
LOGIN :

Register | Disclaimer

   EN    FR    IT 

 









Legend :    VFR   Marginal VFR   IFR   Intensive IFR   Very Intensive IFR
Visi :
Ceiling :
>= 8 km
>= 3000ft
5 to 8 km
1000 to 3000 ft
1500m to 5 km
500 to 1000 ft
800 to 1500m
200 to 500 ft
< 800m
< 200 ft
Symbols :   Thunderstorms  Fog  Heavy snow  Heavy precipitations  Wind > 20 kt







- Airport Elevation : 22 ft
- IATA code : BRO


KBRO - Brownsville South Padre Island International

CURRENT METAR :
  • 252253Z 09010KT 10SM CLR 29/17 A2988 RMK AO2 SLP116 T02940172

EXPIRED METARs :
  • 252153Z 06010KT 10SM CLR 31/17 A2988 RMK AO2 SLP116 T03110172
  • 252053Z 04010KT 10SM CLR 31/18 A2988 RMK AO2 SLP115 T03060183 56009

TAF KBRO
Valid from the 25 at 18:00 until the 26 at 18:00 UTC


251720Z 2518/2618 36010KT P6SM SKC
FM252100 05009KT P6SM SKC
FM260100 VRB05KT P6SM SKC
KZHU FIR / North America



MET'MAP, your aeronautical weather chart ! - Copyright ORBIFLY December 2007 - Disclaimer

ORBIFLY MET'MAP TEAM :

Programming & Development : Alexandra Zaïnal
Concept & Development : Baudouin d'Aumeries
Co-Development & Prog : Marc-Olivier Méhu
Technical & hardware support : Manuel Goepfert

Contact : metmap@orbifly.com




SOURCES & CREDITS :

   NOAA       Earth
Advisory